createdAt,value
2019-01-12T00:01:20.114Z,95.60
2019-01-12T00:03:49.482Z,95.60
2019-01-12T00:06:18.927Z,95.60
2019-01-12T00:08:48.292Z,95.60
2019-01-12T00:11:17.996Z,95.50
2019-01-12T00:13:47.365Z,95.50
2019-01-12T00:16:16.803Z,95.50
2019-01-12T00:18:46.180Z,95.50
2019-01-12T00:21:16.193Z,95.50
2019-01-12T00:23:45.558Z,95.50
2019-01-12T00:26:15.295Z,95.50
2019-01-12T00:28:44.683Z,95.50
2019-01-12T00:31:14.058Z,95.50
2019-01-12T00:33:43.423Z,95.50
2019-01-12T00:36:12.801Z,95.60
2019-01-12T00:38:42.180Z,95.50
2019-01-12T00:41:13.747Z,95.30
2019-01-12T00:43:43.255Z,95.50
2019-01-12T00:46:12.637Z,95.50
2019-01-12T00:48:42.011Z,95.50
2019-01-12T00:51:11.393Z,95.90
2019-01-12T00:53:40.760Z,95.50
2019-01-12T00:56:10.186Z,95.50
2019-01-12T00:58:40.290Z,95.50
2019-01-12T01:01:10.081Z,95.50
2019-01-12T01:03:41.319Z,95.50
2019-01-12T01:06:10.703Z,95.50
2019-01-12T01:08:40.322Z,95.50
2019-01-12T01:11:09.700Z,95.50
2019-01-12T01:13:39.323Z,95.50
2019-01-12T01:16:08.770Z,95.90
2019-01-12T01:18:38.144Z,95.50
2019-01-12T01:21:07.578Z,95.50
2019-01-12T01:23:36.992Z,95.50
2019-01-12T01:26:06.344Z,95.50
2019-01-12T01:28:35.979Z,95.50
2019-01-12T01:31:05.356Z,95.50
2019-01-12T01:33:34.723Z,95.50
2019-01-12T01:36:04.173Z,95.50
2019-01-12T01:38:33.549Z,95.50
2019-01-12T01:41:03.244Z,95.50
2019-01-12T01:43:32.621Z,95.50
2019-01-12T01:46:01.999Z,95.50
2019-01-12T01:48:31.384Z,95.50
2019-01-12T01:51:01.339Z,95.50
2019-01-12T01:53:30.716Z,95.50
2019-01-12T01:56:00.088Z,95.50
2019-01-12T01:58:29.469Z,95.50
2019-01-12T02:00:59.078Z,95.50
2019-01-12T02:03:28.703Z,95.90
2019-01-12T02:05:58.069Z,95.50
2019-01-12T02:08:27.463Z,95.50
2019-01-12T02:10:56.837Z,95.50
2019-01-12T02:13:26.234Z,95.60
2019-01-12T02:15:55.602Z,95.60
2019-01-12T02:18:25.001Z,95.60
2019-01-12T02:20:54.365Z,95.60
2019-01-12T02:23:23.754Z,95.60
2019-01-12T02:25:53.118Z,95.70
2019-01-12T02:28:22.515Z,95.70
2019-01-12T02:30:51.911Z,95.70
2019-01-12T02:33:22.313Z,95.70
2019-01-12T02:35:51.684Z,95.70
2019-01-12T02:38:21.076Z,95.70
2019-01-12T02:40:50.442Z,95.70
2019-01-12T02:43:19.825Z,95.70
2019-01-12T02:45:49.267Z,95.70
2019-01-12T02:48:18.641Z,95.70
2019-01-12T02:50:48.015Z,95.70
2019-01-12T02:53:17.393Z,95.70
2019-01-12T02:55:46.769Z,95.70
2019-01-12T02:58:16.202Z,95.60
2019-01-12T03:00:45.550Z,95.70
2019-01-12T03:03:14.940Z,95.60
2019-01-12T03:05:44.298Z,95.60
2019-01-12T03:08:14.073Z,95.60
2019-01-12T03:10:43.442Z,95.60
2019-01-12T03:13:13.126Z,95.60
2019-01-12T03:15:42.499Z,95.50
2019-01-12T03:18:11.935Z,95.50
2019-01-12T03:20:41.549Z,95.50
2019-01-12T03:23:10.942Z,95.50
2019-01-12T03:25:40.314Z,95.50
2019-01-12T03:28:09.704Z,95.50
2019-01-12T03:30:39.127Z,95.50
2019-01-12T03:33:08.516Z,95.60
2019-01-12T03:35:37.975Z,95.60
2019-01-12T03:38:08.522Z,95.50
2019-01-12T03:40:37.898Z,95.60
2019-01-12T03:43:07.579Z,95.60
2019-01-12T03:45:36.960Z,95.60
2019-01-12T03:48:06.331Z,95.80
2019-01-12T03:50:35.966Z,95.60
2019-01-12T03:53:05.381Z,95.60
2019-01-12T03:55:34.702Z,95.60
2019-01-12T03:58:05.474Z,95.60
2019-01-12T04:00:34.852Z,96.00
2019-01-12T04:03:04.219Z,95.60
2019-01-12T04:05:33.603Z,95.60
2019-01-12T04:08:03.299Z,95.60
2019-01-12T04:10:32.690Z,95.60
2019-01-12T04:13:02.367Z,95.60
2019-01-12T04:15:31.808Z,95.60
2019-01-12T04:18:01.189Z,95.60
2019-01-12T04:20:30.567Z,95.60
2019-01-12T04:22:59.937Z,95.60
2019-01-12T04:25:33.942Z,95.60
2019-01-12T04:28:00.427Z,95.60
2019-01-12T04:30:29.841Z,95.60
2019-01-12T04:32:59.525Z,95.50
2019-01-12T04:35:28.911Z,95.50
2019-01-12T04:37:58.297Z,95.50
2019-01-12T04:40:30.499Z,95.50
2019-01-12T04:42:59.873Z,95.50
2019-01-12T04:45:29.252Z,95.40
2019-01-12T04:47:58.630Z,95.40
2019-01-12T04:50:28.268Z,95.30
2019-01-12T04:52:57.635Z,95.30
2019-01-12T04:55:27.028Z,95.30
2019-01-12T04:57:57.524Z,95.60
2019-01-12T05:00:26.912Z,95.30
2019-01-12T05:02:56.345Z,95.30
2019-01-12T05:05:25.722Z,95.30
2019-01-12T05:07:55.440Z,95.30
2019-01-12T05:10:25.129Z,95.30
2019-01-12T05:12:54.495Z,95.30
2019-01-12T05:15:23.867Z,95.30
2019-01-12T05:17:53.296Z,95.30
2019-01-12T05:20:23.203Z,95.30
2019-01-12T05:22:52.578Z,95.30
2019-01-12T05:25:21.950Z,95.30
2019-01-12T05:27:51.636Z,95.30
2019-01-12T05:30:21.740Z,95.20
2019-01-12T05:32:51.286Z,95.50
2019-01-12T05:35:20.793Z,95.20
2019-01-12T05:37:50.167Z,95.20
2019-01-12T05:40:19.905Z,95.20
2019-01-12T05:42:49.336Z,95.10
2019-01-12T05:45:18.718Z,95.10
2019-01-12T05:47:48.395Z,95.20
2019-01-12T05:50:18.006Z,95.10
2019-01-12T05:52:47.398Z,95.10
2019-01-12T05:55:16.756Z,95.10
2019-01-12T05:57:46.118Z,95.00
2019-01-12T06:00:19.142Z,95.40
2019-01-12T06:02:48.774Z,95.10
2019-01-12T06:05:18.142Z,95.00
2019-01-12T06:07:47.515Z,95.10
2019-01-12T06:10:17.203Z,95.10
2019-01-12T06:12:46.579Z,95.10
2019-01-12T06:15:16.081Z,95.10
2019-01-12T06:17:46.526Z,95.20
2019-01-12T06:20:16.646Z,95.20
2019-01-12T06:22:46.023Z,95.10
2019-01-12T06:25:15.740Z,95.10
2019-01-12T06:27:46.164Z,95.10
2019-01-12T06:30:18.330Z,95.10
2019-01-12T06:32:47.700Z,95.10
2019-01-12T06:35:17.210Z,95.00
2019-01-12T06:37:46.657Z,95.00
2019-01-12T06:40:17.877Z,95.00
2019-01-12T06:42:47.328Z,95.00
2019-01-12T06:45:17.754Z,95.00
2019-01-12T06:47:47.098Z,95.00
2019-01-12T06:50:19.285Z,95.00
2019-01-12T06:52:48.956Z,95.00
2019-01-12T06:55:18.484Z,95.00
2019-01-12T06:57:47.867Z,95.00
2019-01-12T07:00:19.483Z,95.10
2019-01-12T07:02:49.057Z,95.10
2019-01-12T07:05:18.490Z,95.10
2019-01-12T07:07:47.867Z,95.00
2019-01-12T07:10:17.471Z,95.10
2019-01-12T07:12:46.913Z,95.00
2019-01-12T07:15:16.352Z,95.10
2019-01-12T07:17:45.778Z,95.10
2019-01-12T07:20:16.825Z,95.00
2019-01-12T07:22:46.591Z,95.10
2019-01-12T07:25:15.975Z,95.10
2019-01-12T07:27:45.458Z,95.00
2019-01-12T07:30:18.826Z,95.00
2019-01-12T07:32:48.266Z,95.00
2019-01-12T07:35:17.702Z,95.00
2019-01-12T07:37:49.053Z,95.00
2019-01-12T07:40:18.485Z,95.00
2019-01-12T07:42:47.819Z,95.00
2019-01-12T07:45:17.509Z,95.00
2019-01-12T07:47:47.132Z,95.00
2019-01-12T07:50:16.828Z,95.00
2019-01-12T07:52:46.592Z,95.00
2019-01-12T07:55:20.422Z,95.00
2019-01-12T07:57:49.993Z,95.00
2019-01-12T08:00:24.522Z,94.90
2019-01-12T08:02:56.294Z,94.90
2019-01-12T08:05:34.252Z,94.80
2019-01-12T08:08:10.256Z,94.80
2019-01-12T08:10:39.682Z,94.70
2019-01-12T08:13:11.917Z,94.70
2019-01-12T08:15:41.522Z,94.60
2019-01-12T08:18:10.972Z,94.60
2019-01-12T08:20:40.351Z,94.60
2019-01-12T08:23:09.750Z,94.40
2019-01-12T08:25:39.209Z,94.40
2019-01-12T08:28:08.580Z,94.20
2019-01-12T08:30:38.040Z,94.10
2019-01-12T08:33:07.417Z,94.10
2019-01-12T08:35:36.795Z,94.20
2019-01-12T08:38:06.428Z,94.20
2019-01-12T08:40:35.815Z,94.30
2019-01-12T08:43:05.436Z,94.20
2019-01-12T08:45:34.820Z,94.20
2019-01-12T08:48:04.340Z,94.20
2019-01-12T08:50:33.731Z,94.10
2019-01-12T08:53:03.115Z,94.00
2019-01-12T08:55:32.509Z,94.10
2019-01-12T08:58:01.872Z,94.00
2019-01-12T09:00:32.478Z,94.10
2019-01-12T09:03:02.161Z,94.00
2019-01-12T09:05:31.537Z,94.00
2019-01-12T09:08:00.904Z,93.80
2019-01-12T09:10:30.312Z,93.80
2019-01-12T09:12:59.679Z,93.70
2019-01-12T09:15:29.081Z,93.70
2019-01-12T09:17:58.460Z,93.70
2019-01-12T09:20:28.136Z,93.70
2019-01-12T09:22:57.515Z,93.50
2019-01-12T09:25:26.900Z,93.40
2019-01-12T09:27:56.278Z,93.50
2019-01-12T09:30:25.870Z,93.50
2019-01-12T09:32:55.274Z,93.50
2019-01-12T09:35:24.709Z,93.60
2019-01-12T09:37:54.157Z,93.40
2019-01-12T09:40:23.954Z,93.60
2019-01-12T09:42:53.575Z,93.60
2019-01-12T09:45:23.120Z,93.60
2019-01-12T09:47:52.778Z,93.60
2019-01-12T09:50:22.162Z,93.20
2019-01-12T09:52:51.690Z,93.30
2019-01-12T09:55:21.111Z,93.20
2019-01-12T09:57:50.474Z,93.10
2019-01-12T10:00:22.970Z,93.20
2019-01-12T10:02:52.370Z,93.10
2019-01-12T10:05:21.814Z,93.20
2019-01-12T10:07:51.253Z,93.20
2019-01-12T10:10:22.804Z,93.10
2019-01-12T10:12:52.252Z,93.00
2019-01-12T10:15:21.629Z,93.00
2019-01-12T10:17:51.010Z,92.90
2019-01-12T10:20:21.365Z,92.90
2019-01-12T10:22:50.914Z,92.80
2019-01-12T10:25:20.435Z,92.80
2019-01-12T10:27:49.818Z,93.00
2019-01-12T10:30:22.672Z,93.00
2019-01-12T10:32:52.184Z,92.80
2019-01-12T10:35:21.877Z,92.90
2019-01-12T10:37:51.352Z,93.00
2019-01-12T10:40:21.236Z,92.90
2019-01-12T10:42:51.003Z,92.80
2019-01-12T10:45:22.803Z,92.90
2019-01-12T10:47:52.942Z,92.80
2019-01-12T10:50:28.850Z,92.80
2019-01-12T10:52:58.386Z,92.90
2019-01-12T10:55:27.779Z,92.80
2019-01-12T10:57:57.156Z,92.70
2019-01-12T11:00:34.845Z,92.70
2019-01-12T11:03:04.866Z,92.80
2019-01-12T11:05:34.375Z,92.70
2019-01-12T11:08:05.161Z,92.80
2019-01-12T11:10:34.827Z,92.80
2019-01-12T11:13:04.553Z,92.80
2019-01-12T11:15:34.962Z,92.70
2019-01-12T11:18:05.236Z,92.70
2019-01-12T11:20:34.612Z,92.80
2019-01-12T11:23:04.271Z,92.70
2019-01-12T11:25:33.640Z,92.70
2019-01-12T11:28:03.041Z,92.70
2019-01-12T11:30:32.407Z,92.60
2019-01-12T11:33:02.103Z,92.50
2019-01-12T11:35:31.468Z,92.60
2019-01-12T11:38:00.845Z,92.50
2019-01-12T11:40:30.230Z,92.60
2019-01-12T11:42:59.842Z,92.70
2019-01-12T11:45:29.311Z,92.80
2019-01-12T11:47:58.660Z,92.90
2019-01-12T11:50:28.045Z,93.00
2019-01-12T11:52:57.427Z,93.00
2019-01-12T11:55:26.826Z,93.00
2019-01-12T11:57:56.268Z,93.10
2019-01-12T12:00:28.237Z,93.10
2019-01-12T12:02:57.694Z,93.00
2019-01-12T12:05:27.312Z,93.10
2019-01-12T12:07:57.355Z,93.10
2019-01-12T12:10:26.742Z,93.10
2019-01-12T12:12:56.178Z,93.20
2019-01-12T12:15:25.800Z,93.20
2019-01-12T12:17:55.190Z,93.30
2019-01-12T12:20:28.310Z,93.20
2019-01-12T12:22:57.540Z,93.30
2019-01-12T12:25:26.944Z,93.40
2019-01-12T12:27:56.305Z,93.50
2019-01-12T12:30:28.434Z,93.50
2019-01-12T12:32:57.814Z,93.60
2019-01-12T12:35:27.186Z,93.70
2019-01-12T12:37:56.624Z,93.70
2019-01-12T12:40:26.505Z,93.80
2019-01-12T12:42:56.109Z,93.90
2019-01-12T12:45:29.296Z,93.90
2019-01-12T12:47:58.860Z,94.10
2019-01-12T12:50:29.800Z,94.10
2019-01-12T12:52:59.369Z,94.20
2019-01-12T12:55:29.213Z,94.30
2019-01-12T12:57:58.877Z,94.30
2019-01-12T13:00:42.181Z,94.40
2019-01-12T13:03:11.909Z,94.50
2019-01-12T13:05:41.310Z,94.50
2019-01-12T13:08:10.651Z,94.60
2019-01-12T13:10:41.857Z,94.60
2019-01-12T13:13:13.616Z,94.60
2019-01-12T13:15:43.128Z,94.60
2019-01-12T13:18:12.491Z,94.60
2019-01-12T13:20:47.739Z,94.70
2019-01-12T13:23:18.192Z,94.80
2019-01-12T13:25:47.835Z,94.80
2019-01-12T13:28:17.187Z,94.80
2019-01-12T13:30:46.561Z,94.80
2019-01-12T13:33:15.931Z,95.20
2019-01-12T13:35:45.553Z,94.80
2019-01-12T13:38:15.205Z,94.80
2019-01-12T13:40:44.633Z,94.90
2019-01-12T13:43:13.968Z,94.90
2019-01-12T13:45:43.345Z,94.90
2019-01-12T13:48:12.719Z,95.00
2019-01-12T13:50:42.099Z,95.00
2019-01-12T13:53:11.462Z,95.10
2019-01-12T13:55:41.097Z,95.10
2019-01-12T13:58:10.447Z,95.10
2019-01-12T14:00:39.897Z,95.10
2019-01-12T14:03:09.323Z,95.10
2019-01-12T14:05:38.787Z,95.20
2019-01-12T14:08:08.233Z,95.20
2019-01-12T14:10:50.439Z,95.20
2019-01-12T14:13:20.253Z,95.20
2019-01-12T14:15:49.558Z,95.30
2019-01-12T14:18:22.546Z,95.30
2019-01-12T14:20:50.451Z,95.30
2019-01-12T14:23:19.875Z,95.30
2019-01-12T14:25:49.242Z,95.40
2019-01-12T14:28:18.612Z,95.40
2019-01-12T14:30:48.227Z,95.40
2019-01-12T14:33:17.587Z,95.40
2019-01-12T14:35:46.968Z,95.40
2019-01-12T14:38:16.347Z,95.40
2019-01-12T14:40:45.952Z,95.40
2019-01-12T14:43:15.580Z,95.40
2019-01-12T14:45:44.917Z,95.50
2019-01-12T14:48:14.555Z,95.40
2019-01-12T14:50:43.922Z,95.40
2019-01-12T14:53:13.283Z,95.40
2019-01-12T14:55:42.674Z,95.40
2019-01-12T14:58:12.005Z,95.40
2019-01-12T15:00:41.371Z,95.40
2019-01-12T15:03:10.756Z,95.50
2019-01-12T15:05:40.133Z,95.40
2019-01-12T15:08:09.844Z,95.50
2019-01-12T15:10:39.189Z,95.50
2019-01-12T15:13:08.559Z,95.40
2019-01-12T15:15:37.923Z,95.50
2019-01-12T15:18:07.387Z,95.50
2019-01-12T15:20:37.002Z,95.50
2019-01-12T15:23:06.627Z,95.50
2019-01-12T15:25:35.984Z,95.60
2019-01-12T15:28:09.375Z,95.60
2019-01-12T15:30:36.449Z,95.60
2019-01-12T15:33:05.894Z,95.60
2019-01-12T15:35:35.399Z,95.60
2019-01-12T15:38:05.007Z,95.60
2019-01-12T15:40:34.372Z,95.60
2019-01-12T15:43:03.826Z,95.60
2019-01-12T15:45:33.324Z,95.60
2019-01-12T15:48:02.938Z,95.70
2019-01-12T15:50:32.324Z,95.70
2019-01-12T15:53:02.007Z,95.70
2019-01-12T15:55:31.445Z,95.70
2019-01-12T15:58:00.826Z,95.70
2019-01-12T16:00:30.325Z,95.70
2019-01-12T16:02:59.698Z,95.70
2019-01-12T16:05:29.302Z,95.70
2019-01-12T16:07:58.994Z,95.70
2019-01-12T16:10:29.887Z,95.70
2019-01-12T16:12:59.275Z,95.80
2019-01-12T16:15:28.893Z,95.80
2019-01-12T16:17:58.251Z,95.80
2019-01-12T16:20:32.114Z,95.80
2019-01-12T16:23:01.701Z,95.80
2019-01-12T16:25:31.059Z,95.80
2019-01-12T16:28:00.747Z,95.90
2019-01-12T16:30:31.094Z,95.90
2019-01-12T16:33:00.463Z,95.90
2019-01-12T16:35:29.822Z,96.00
2019-01-12T16:37:59.592Z,96.00
2019-01-12T16:40:32.144Z,96.00
2019-01-12T16:43:01.525Z,95.90
2019-01-12T16:45:33.292Z,96.00
2019-01-12T16:48:02.693Z,95.90
2019-01-12T16:50:32.059Z,96.00
2019-01-12T16:53:01.433Z,95.90
2019-01-12T16:55:30.816Z,95.90
2019-01-12T16:58:00.184Z,95.90
2019-01-12T17:00:29.752Z,95.90
2019-01-12T17:02:59.420Z,95.90
2019-01-12T17:05:29.039Z,95.80
2019-01-12T17:07:58.419Z,95.50
2019-01-12T17:10:28.156Z,95.40
2019-01-12T17:12:57.818Z,95.40
2019-01-12T17:15:34.402Z,95.20
2019-01-12T17:17:58.343Z,95.10
2019-01-12T17:20:28.075Z,95.10
2019-01-12T17:22:59.291Z,95.10
2019-01-12T17:25:28.931Z,95.10
2019-01-12T17:27:58.279Z,95.10
2019-01-12T17:30:27.851Z,95.10
2019-01-12T17:32:57.206Z,95.10
2019-01-12T17:35:26.899Z,95.10
2019-01-12T17:37:56.256Z,95.10
2019-01-12T17:40:26.060Z,95.10
2019-01-12T17:42:55.690Z,95.20
2019-01-12T17:45:26.380Z,95.30
2019-01-12T17:47:55.810Z,95.50
2019-01-12T17:50:25.782Z,95.30
2019-01-12T17:52:55.215Z,95.30
2019-01-12T17:55:25.876Z,95.30
2019-01-12T17:57:55.224Z,95.40
2019-01-12T18:00:37.787Z,95.40
2019-01-12T18:03:07.155Z,95.50
2019-01-12T18:05:36.538Z,95.50
2019-01-12T18:08:06.221Z,95.60
2019-01-12T18:10:35.604Z,95.70
2019-01-12T18:13:05.307Z,95.80
2019-01-12T18:15:34.684Z,95.90
2019-01-12T18:18:04.570Z,96.00
2019-01-12T18:20:33.954Z,96.00
2019-01-12T18:23:03.396Z,96.00
2019-01-12T18:25:32.859Z,96.00
2019-01-12T18:28:02.304Z,96.00
2019-01-12T18:30:31.678Z,96.00
2019-01-12T18:33:01.065Z,96.00
2019-01-12T18:35:31.353Z,95.90
2019-01-12T18:38:00.718Z,95.90
2019-01-12T18:40:30.101Z,95.90
2019-01-12T18:42:59.491Z,95.90
2019-01-12T18:45:28.854Z,95.90
2019-01-12T18:47:58.222Z,95.80
2019-01-12T18:50:28.809Z,95.80
2019-01-12T18:52:58.249Z,95.80
2019-01-12T18:55:28.590Z,95.70
2019-01-12T18:57:58.697Z,95.70
2019-01-12T19:00:29.920Z,95.70
2019-01-12T19:02:59.580Z,95.60
2019-01-12T19:05:28.947Z,95.70
2019-01-12T19:07:58.380Z,95.60
2019-01-12T19:10:27.757Z,95.60
2019-01-12T19:12:57.596Z,95.50
2019-01-12T19:15:28.880Z,95.50
2019-01-12T19:17:58.253Z,95.50
2019-01-12T19:20:27.670Z,95.50
2019-01-12T19:22:57.076Z,95.50
2019-01-12T19:25:26.706Z,95.60
2019-01-12T19:27:56.093Z,95.50
2019-01-12T19:30:25.554Z,95.50
2019-01-12T19:32:54.966Z,95.40
2019-01-12T19:35:24.337Z,95.40
2019-01-12T19:37:53.728Z,95.40
2019-01-12T19:40:23.838Z,95.40
2019-01-12T19:42:53.214Z,95.40
2019-01-12T19:45:22.591Z,95.30
2019-01-12T19:47:52.395Z,95.30
2019-01-12T19:50:24.083Z,95.30
2019-01-12T19:52:53.528Z,95.30
2019-01-12T19:55:23.186Z,95.40
2019-01-12T19:57:52.561Z,95.40
2019-01-12T20:00:28.482Z,95.40
2019-01-12T20:02:57.923Z,95.40
2019-01-12T20:05:27.285Z,95.40
2019-01-12T20:07:56.724Z,95.40
2019-01-12T20:10:27.787Z,95.40
2019-01-12T20:12:57.205Z,95.40
2019-01-12T20:15:26.733Z,95.50
2019-01-12T20:17:56.111Z,95.40
2019-01-12T20:20:25.512Z,95.40
2019-01-12T20:22:55.318Z,95.40
2019-01-12T20:25:28.091Z,95.30
2019-01-12T20:27:57.819Z,95.40
2019-01-12T20:30:40.520Z,95.70
2019-01-12T20:33:45.754Z,95.40
2019-01-12T20:36:37.876Z,95.40
2019-01-12T20:39:41.914Z,95.50
2019-01-12T20:42:34.076Z,95.40
2019-01-12T20:45:42.524Z,95.50
2019-01-12T20:48:37.579Z,95.50
2019-01-12T20:51:36.823Z,95.50
2019-01-12T20:54:31.836Z,95.50
2019-01-12T20:57:29.286Z,95.50
2019-01-12T21:00:34.905Z,95.50
2019-01-12T21:03:30.502Z,95.50
2019-01-12T21:06:09.843Z,95.90
2019-01-12T21:09:20.738Z,95.50
2019-01-12T21:12:27.764Z,95.60
2019-01-12T21:15:01.367Z,95.50
2019-01-12T21:17:30.740Z,95.50
2019-01-12T21:20:00.234Z,95.50
2019-01-12T21:22:29.617Z,95.50
2019-01-12T21:24:59.008Z,95.50
2019-01-12T21:27:28.373Z,95.40
2019-01-12T21:29:57.761Z,95.40
2019-01-12T21:32:27.134Z,95.30
2019-01-12T21:34:56.570Z,95.30
2019-01-12T21:37:25.884Z,95.30
2019-01-12T21:39:55.251Z,95.30
2019-01-12T21:42:24.620Z,95.30
2019-01-12T21:44:54.265Z,95.30
2019-01-12T21:47:23.745Z,95.30
2019-01-12T21:49:53.104Z,95.30
2019-01-12T21:52:22.478Z,95.30
2019-01-12T21:54:51.853Z,95.30
2019-01-12T21:57:21.544Z,95.30
2019-01-12T21:59:50.936Z,95.20
2019-01-12T22:02:20.332Z,95.20
2019-01-12T22:04:49.701Z,95.20
2019-01-12T22:07:19.105Z,95.20
2019-01-12T22:09:48.457Z,95.20
2019-01-12T22:12:17.834Z,95.20
2019-01-12T22:14:47.202Z,95.20
2019-01-12T22:17:16.577Z,95.20
2019-01-12T22:19:46.243Z,95.20
2019-01-12T22:22:15.619Z,95.20
2019-01-12T22:24:44.988Z,95.10
2019-01-12T22:27:14.375Z,95.10
2019-01-12T22:29:49.781Z,95.20
2019-01-12T22:32:14.848Z,95.20
2019-01-12T22:34:44.218Z,95.10
2019-01-12T22:37:13.834Z,95.10
2019-01-12T22:39:46.083Z,95.20
2019-01-12T22:42:15.710Z,95.60
2019-01-12T22:44:45.353Z,95.20
2019-01-12T22:47:14.728Z,95.20
2019-01-12T22:49:44.100Z,95.20
2019-01-12T22:52:13.475Z,95.20
2019-01-12T22:54:42.843Z,95.50
2019-01-12T22:57:13.763Z,95.10
2019-01-12T22:59:43.419Z,95.10
2019-01-12T23:02:13.374Z,95.20
2019-01-12T23:04:42.731Z,95.10
2019-01-12T23:07:12.108Z,95.10
2019-01-12T23:09:41.483Z,95.10
2019-01-12T23:12:12.643Z,95.10
2019-01-12T23:14:42.381Z,95.20
2019-01-12T23:17:14.886Z,95.20
2019-01-12T23:19:44.267Z,95.20
2019-01-12T23:22:13.706Z,95.20
2019-01-12T23:24:43.090Z,95.20
2019-01-12T23:27:12.492Z,95.20
2019-01-12T23:29:41.866Z,95.20
2019-01-12T23:32:11.233Z,95.20
2019-01-12T23:34:40.615Z,95.20
2019-01-12T23:37:09.983Z,95.20
2019-01-12T23:39:39.400Z,95.20
2019-01-12T23:42:09.673Z,95.20
2019-01-12T23:44:39.115Z,95.30
2019-01-12T23:47:08.490Z,95.30
2019-01-12T23:49:37.875Z,95.30
2019-01-12T23:52:07.605Z,95.30
2019-01-12T23:54:37.233Z,95.40
2019-01-12T23:57:06.617Z,95.40
2019-01-12T23:59:36.023Z,95.50
